Impacts TAF Board
For situational awareness. Not to be used for flight planning purposes.
IDs:

KLAS - Las Vegas/McCarran I, NV, US

Issued at 1132 UTC 19 Apr 2019
Updated at 1424 UTC 19 Apr 2019
Potential Impact None Slight Moderate High
Time1356Z 19/15Z 19/16Z 19/17Z 19/18Z 19/19Z 19/20Z 19/21Z 19/22Z 19/23Z 20/00Z 20/01Z 20/02Z 20/03Z>>
Type OBS PRVL PRVL PRVL PRVL PRVL PRVL PRVL PRVL PRVL PRVL PRVL PRVL PRVL
VIS 10 >6 >6 >6 >6 >6 >6 >6 >6 >6 >6 >6 >6 >6
CIG -- -- -- -- -- -- -- -- -- -- -- -- -- --
Cover SCT FEW FEW FEW FEW FEW FEW FEW FEW FEW FEW FEW FEW FEW
FltCat VFR VFR VFR VFR VFR VFR VFR VFR VFR VFR VFR VFR VFR VFR
WX -- -- -- -- -- -- -- -- -- -- -- -- -- --
WDir VRB VRB VRB VRB VRB VRB VRB VRB VRB 160 160 160 160 160
WSpd 3 5 5 5 5 5 5 5 5 8 8 8 8 8
WGst -- -- -- -- -- -- -- -- -- -- -- -- -- --
Raw TAF
KLAS 191132Z 1912/2018 VRB05KT P6SM FEW250
  FM192300 16008KT P6SM FEW200
  FM200600 22008KT P6SM BKN200


Raw METAR
KLAS 191356Z VRB03KT 10SM SCT250 17/02 A3004 RMK AO2 SLP154 T01720017
KLAS 191256Z 20005KT 10SM SCT250 17/01 A3003 RMK AO2 SLP151 T01670011
KLAS 191156Z 23003KT 10SM SCT250 17/01 A3003 RMK AO2 SLP150 T01720011 10222 20167 58005

METAR Board
Radar Display
Forecast Discussion
For situational awareness. Not to be used for flight planning purposes.